PWSweather.com
Personal Weather Stations
Station Observations
UPSTATEWEATHER
Silver Leaf, Greer, SC 29650

Silver LeafGreer, SC 29650

Lat: 34.8955792, Lon: -82.2868211

Elevation: 875

Station Type: Davis Vantage Vue

https://www.upstateweather.com

High Low Average
Temperature 84.0°F28.9°C 67.0°F19.4°C 75.3°F24.1°C
Dew Point 71.7°F22.1°C 64.6°F18.1°C 67.7°F19.8°C
Winds 2.3 mph 3.7 kmh Calm Calm Calm NCalm N
Wind Gusts 3.5 mph5.6 kmh -- --
Humidity 93% 60% 78%
Pressure 30.19 in1022.4 mb 30.07 in1018.3 mb -
Precipitation 0.00 in0.0 mm - -
Hour Temp Dew Point Humidity Winds Wind Gusts Pressure Precip Precip Rate Daily Precip Total
12:00 AM 70.0°F21.1°C 66.9°F19.4°C 90% Calm Calm -- 30.14 in1020.7 mb - 0.00 in0.0 mm 0.00 in0.0 mm
12:15 AM 70.2°F21.2°C 66.8°F19.3°C 89% Calm Calm -- 30.15 in1021.0 mb - 0.00 in0.0 mm 0.00 in0.0 mm
12:30 AM 70.2°F21.2°C 66.8°F19.3°C 89% Calm Calm -- 30.15 in1021.0 mb - 0.00 in0.0 mm 0.00 in0.0 mm
12:45 AM 70.0°F21.1°C 66.6°F19.2°C 89% Calm Calm -- 30.15 in1021.0 mb - 0.00 in0.0 mm 0.00 in0.0 mm
01:00 AM 69.8°F21.0°C 66.4°F19.1°C 89% Calm Calm -- 30.15 in1021.0 mb - 0.00 in0.0 mm 0.00 in0.0 mm
01:15 AM 69.4°F20.8°C 66.0°F18.9°C 89% Calm Calm -- 30.15 in1021.0 mb - 0.00 in0.0 mm 0.00 in0.0 mm
01:30 AM 69.2°F20.7°C 66.1°F18.9°C 90% Calm Calm -- 30.15 in1021.0 mb - 0.00 in0.0 mm 0.00 in0.0 mm
01:45 AM 68.8°F20.4°C 66.1°F18.9°C 91% Calm Calm -- 30.15 in1021.0 mb - 0.00 in0.0 mm 0.00 in0.0 mm
02:00 AM 68.6°F20.3°C 66.2°F19.0°C 92% Calm Calm -- 30.15 in1021.0 mb - 0.00 in0.0 mm 0.00 in0.0 mm
02:15 AM 68.4°F20.2°C 66.0°F18.9°C 92% Calm Calm -- 30.14 in1020.7 mb - 0.00 in0.0 mm 0.00 in0.0 mm
02:30 AM 68.3°F20.2°C 65.9°F18.8°C 92% Calm Calm -- 30.14 in1020.7 mb - 0.00 in0.0 mm 0.00 in0.0 mm
02:45 AM 68.0°F20.0°C 65.6°F18.7°C 92% Calm Calm -- 30.14 in1020.7 mb - 0.00 in0.0 mm 0.00 in0.0 mm
03:00 AM 67.9°F19.9°C 65.8°F18.8°C 93% Calm Calm -- 30.13 in1020.3 mb - 0.00 in0.0 mm 0.00 in0.0 mm
03:15 AM 67.7°F19.8°C 65.3°F18.5°C 92% Calm Calm -- 30.13 in1020.3 mb - 0.00 in0.0 mm 0.00 in0.0 mm
03:30 AM 67.7°F19.8°C 65.0°F18.3°C 91% Calm Calm -- 30.13 in1020.3 mb - 0.00 in0.0 mm 0.00 in0.0 mm
03:45 AM 67.5°F19.7°C 65.1°F18.4°C 92% Calm Calm -- 30.13 in1020.3 mb - 0.00 in0.0 mm 0.00 in0.0 mm
04:00 AM 67.5°F19.7°C 65.1°F18.4°C 92% Calm Calm -- 30.13 in1020.3 mb - 0.00 in0.0 mm 0.00 in0.0 mm
04:15 AM 67.5°F19.7°C 65.1°F18.4°C 92% Calm Calm -- 30.13 in1020.3 mb - 0.00 in0.0 mm 0.00 in0.0 mm
04:30 AM 67.6°F19.8°C 65.2°F18.4°C 92% Calm Calm -- 30.14 in1020.7 mb - 0.00 in0.0 mm 0.00 in0.0 mm
04:45 AM 67.8°F19.9°C 65.4°F18.6°C 92% Calm Calm -- 30.14 in1020.7 mb - 0.00 in0.0 mm 0.00 in0.0 mm
05:00 AM 67.9°F19.9°C 65.2°F18.4°C 91% Calm Calm -- 30.14 in1020.7 mb - 0.00 in0.0 mm 0.00 in0.0 mm
05:15 AM 68.1°F20.1°C 65.4°F18.6°C 91% Calm Calm -- 30.15 in1021.0 mb - 0.00 in0.0 mm 0.00 in0.0 mm
05:30 AM 68.1°F20.1°C 65.4°F18.6°C 91% Calm Calm -- 30.15 in1021.0 mb - 0.00 in0.0 mm 0.00 in0.0 mm
05:45 AM 67.9°F19.9°C 65.2°F18.4°C 91% Calm Calm -- 30.15 in1021.0 mb - 0.00 in0.0 mm 0.00 in0.0 mm
06:00 AM 67.5°F19.7°C 64.8°F18.2°C 91% Calm Calm -- 30.16 in1021.3 mb - 0.00 in0.0 mm 0.00 in0.0 mm
06:15 AM 67.2°F19.6°C 64.8°F18.2°C 92% Calm Calm -- 30.16 in1021.3 mb - 0.00 in0.0 mm 0.00 in0.0 mm
06:30 AM 67.1°F19.5°C 64.7°F18.2°C 92% Calm Calm -- 30.16 in1021.3 mb - 0.00 in0.0 mm 0.00 in0.0 mm
06:45 AM 67.0°F19.4°C 64.6°F18.1°C 92% Calm Calm -- 30.17 in1021.7 mb - 0.00 in0.0 mm 0.00 in0.0 mm
07:00 AM 67.3°F19.6°C 64.9°F18.3°C 92% Calm Calm -- 30.17 in1021.7 mb - 0.00 in0.0 mm 0.00 in0.0 mm
07:15 AM 67.7°F19.8°C 65.3°F18.5°C 92% Calm Calm -- 30.17 in1021.7 mb - 0.00 in0.0 mm 0.00 in0.0 mm
07:30 AM 68.0°F20.0°C 65.9°F18.8°C 93% Calm Calm -- 30.18 in1022.0 mb - 0.00 in0.0 mm 0.00 in0.0 mm
07:45 AM 68.5°F20.3°C 66.1°F18.9°C 92% Calm Calm -- 30.18 in1022.0 mb - 0.00 in0.0 mm 0.00 in0.0 mm
08:00 AM 68.9°F20.5°C 66.5°F19.2°C 92% Calm Calm -- 30.18 in1022.0 mb - 0.00 in0.0 mm 0.00 in0.0 mm
08:15 AM 69.4°F20.8°C 66.7°F19.3°C 91% Calm Calm -- 30.19 in1022.4 mb - 0.00 in0.0 mm 0.00 in0.0 mm
08:30 AM 70.7°F21.5°C 67.9°F19.9°C 91% Calm Calm -- 30.19 in1022.4 mb - 0.00 in0.0 mm 0.00 in0.0 mm
08:45 AM 72.3°F22.4°C 68.8°F20.4°C 89% Calm Calm -- 30.19 in1022.4 mb - 0.00 in0.0 mm 0.00 in0.0 mm
09:00 AM 74.0°F23.3°C 69.5°F20.8°C 86% Calm Calm -- 30.19 in1022.4 mb - 0.00 in0.0 mm 0.00 in0.0 mm
09:15 AM 75.5°F24.2°C 70.7°F21.5°C 85% Calm Calm 1.2 mph1.9 kmh 30.19 in1022.4 mb - 0.00 in0.0 mm 0.00 in0.0 mm
09:30 AM 76.6°F24.8°C 70.3°F21.3°C 81% Calm Calm -- 30.19 in1022.4 mb - 0.00 in0.0 mm 0.00 in0.0 mm
09:45 AM 77.7°F25.4°C 68.4°F20.2°C 73% Calm Calm -- 30.19 in1022.4 mb - 0.00 in0.0 mm 0.00 in0.0 mm
10:00 AM 78.6°F25.9°C 70.8°F21.6°C 77% 1.2 mph N1.9 kmh N 1.2 mph1.9 kmh 30.19 in1022.4 mb - 0.00 in0.0 mm 0.00 in0.0 mm
10:15 AM 79.2°F26.2°C 69.8°F21.0°C 73% Calm Calm 1.2 mph1.9 kmh 30.19 in1022.4 mb - 0.00 in0.0 mm 0.00 in0.0 mm
10:30 AM 80.3°F26.8°C 69.6°F20.9°C 70% 1.2 mph N1.9 kmh N 1.2 mph1.9 kmh 30.19 in1022.4 mb - 0.00 in0.0 mm 0.00 in0.0 mm
10:45 AM 80.5°F26.9°C 70.2°F21.2°C 71% Calm Calm 2.3 mph3.7 kmh 30.19 in1022.4 mb - 0.00 in0.0 mm 0.00 in0.0 mm
11:00 AM 80.9°F27.2°C 68.9°F20.5°C 67% 1.2 mph N1.9 kmh N 3.5 mph5.6 kmh 30.18 in1022.0 mb - 0.00 in0.0 mm 0.00 in0.0 mm
11:15 AM 81.2°F27.3°C 69.6°F20.9°C 68% Calm Calm 1.2 mph1.9 kmh 30.18 in1022.0 mb - 0.00 in0.0 mm 0.00 in0.0 mm
11:30 AM 81.0°F27.2°C 69.0°F20.6°C 67% Calm Calm -- 30.18 in1022.0 mb - 0.00 in0.0 mm 0.00 in0.0 mm
11:45 AM 81.6°F27.6°C 69.1°F20.6°C 66% 1.2 mph N1.9 kmh N 2.3 mph3.7 kmh 30.17 in1021.7 mb - 0.00 in0.0 mm 0.00 in0.0 mm
12:00 PM 81.9°F27.7°C 67.6°F19.8°C 62% 1.2 mph N1.9 kmh N 3.5 mph5.6 kmh 30.16 in1021.3 mb - 0.00 in0.0 mm 0.00 in0.0 mm
12:15 PM 82.5°F28.1°C 68.2°F20.1°C 62% Calm Calm -- 30.16 in1021.3 mb - 0.00 in0.0 mm 0.00 in0.0 mm
12:30 PM 83.2°F28.4°C 67.9°F19.9°C 60% 1.2 mph N1.9 kmh N 3.5 mph5.6 kmh 30.15 in1021.0 mb - 0.00 in0.0 mm 0.00 in0.0 mm
12:45 PM 83.7°F28.7°C 69.8°F21.0°C 63% Calm Calm 1.2 mph1.9 kmh 30.15 in1021.0 mb - 0.00 in0.0 mm 0.00 in0.0 mm
01:00 PM 83.1°F28.4°C 69.7°F20.9°C 64% 1.2 mph N1.9 kmh N 1.2 mph1.9 kmh 30.14 in1020.7 mb - 0.00 in0.0 mm 0.00 in0.0 mm
01:15 PM 83.8°F28.8°C 70.3°F21.3°C 64% Calm Calm 1.2 mph1.9 kmh 30.13 in1020.3 mb - 0.00 in0.0 mm 0.00 in0.0 mm
01:30 PM 83.4°F28.6°C 69.4°F20.8°C 63% 1.2 mph N1.9 kmh N 1.2 mph1.9 kmh 30.12 in1020.0 mb - 0.00 in0.0 mm 0.00 in0.0 mm
01:45 PM 84.0°F28.9°C 69.6°F20.9°C 62% 1.2 mph N1.9 kmh N 2.3 mph3.7 kmh 30.12 in1020.0 mb - 0.00 in0.0 mm 0.00 in0.0 mm
02:00 PM 82.4°F28.0°C 70.3°F21.3°C 67% Calm Calm -- 30.11 in1019.6 mb - 0.00 in0.0 mm 0.00 in0.0 mm
02:15 PM 82.9°F28.3°C 69.5°F20.8°C 64% 1.2 mph N1.9 kmh N 2.3 mph3.7 kmh 30.11 in1019.6 mb - 0.00 in0.0 mm 0.00 in0.0 mm
02:30 PM 83.5°F28.6°C 70.9°F21.6°C 66% Calm Calm 1.2 mph1.9 kmh 30.10 in1019.3 mb - 0.00 in0.0 mm 0.00 in0.0 mm
02:45 PM 82.7°F28.2°C 70.6°F21.4°C 67% 1.2 mph N1.9 kmh N 1.2 mph1.9 kmh 30.09 in1019.0 mb - 0.00 in0.0 mm 0.00 in0.0 mm
03:00 PM 82.0°F27.8°C 71.7°F22.1°C 71% Calm Calm -- 30.09 in1019.0 mb - 0.00 in0.0 mm 0.00 in0.0 mm
03:15 PM 82.5°F28.1°C 68.6°F20.3°C 63% 1.2 mph N1.9 kmh N 2.3 mph3.7 kmh 30.09 in1019.0 mb - 0.00 in0.0 mm 0.00 in0.0 mm
03:30 PM 83.5°F28.6°C 68.6°F20.3°C 61% 2.3 mph N3.7 kmh N 2.3 mph3.7 kmh 30.08 in1018.6 mb - 0.00 in0.0 mm 0.00 in0.0 mm
03:45 PM 83.9°F28.8°C 68.5°F20.3°C 60% Calm Calm -- 30.08 in1018.6 mb - 0.00 in0.0 mm 0.00 in0.0 mm
04:00 PM 82.6°F28.1°C 71.4°F21.9°C 69% Calm Calm 1.2 mph1.9 kmh 30.08 in1018.6 mb - 0.00 in0.0 mm 0.00 in0.0 mm
04:15 PM 82.2°F27.9°C 70.1°F21.2°C 67% Calm Calm -- 30.08 in1018.6 mb - 0.00 in0.0 mm 0.00 in0.0 mm
04:30 PM 82.8°F28.2°C 70.3°F21.3°C 66% Calm Calm -- 30.08 in1018.6 mb - 0.00 in0.0 mm 0.00 in0.0 mm
04:45 PM 81.7°F27.6°C 69.3°F20.7°C 66% 1.2 mph N1.9 kmh N 3.5 mph5.6 kmh 30.08 in1018.6 mb - 0.00 in0.0 mm 0.00 in0.0 mm
05:00 PM 82.1°F27.8°C 70.5°F21.4°C 68% Calm Calm -- 30.07 in1018.3 mb - 0.00 in0.0 mm 0.00 in0.0 mm
05:15 PM 82.1°F27.8°C 67.8°F19.9°C 62% 1.2 mph N1.9 kmh N 3.5 mph5.6 kmh 30.08 in1018.6 mb - 0.00 in0.0 mm 0.00 in0.0 mm
05:30 PM 81.7°F27.6°C 67.4°F19.7°C 62% Calm Calm -- 30.07 in1018.3 mb - 0.00 in0.0 mm 0.00 in0.0 mm
05:45 PM 81.9°F27.7°C 68.5°F20.3°C 64% Calm Calm -- 30.07 in1018.3 mb - 0.00 in0.0 mm 0.00 in0.0 mm
06:00 PM 81.1°F27.3°C 68.2°F20.1°C 65% Calm Calm -- 30.08 in1018.6 mb - 0.00 in0.0 mm 0.00 in0.0 mm
06:15 PM 80.9°F27.2°C 68.0°F20.0°C 65% Calm Calm -- 30.08 in1018.6 mb - 0.00 in0.0 mm 0.00 in0.0 mm
06:30 PM 81.0°F27.2°C 69.8°F21.0°C 69% Calm Calm -- 30.08 in1018.6 mb - 0.00 in0.0 mm 0.00 in0.0 mm
06:45 PM 80.9°F27.2°C 67.1°F19.5°C 63% Calm Calm -- 30.09 in1019.0 mb - 0.00 in0.0 mm 0.00 in0.0 mm
07:00 PM 81.1°F27.3°C 67.8°F19.9°C 64% Calm Calm -- 30.09 in1019.0 mb - 0.00 in0.0 mm 0.00 in0.0 mm
07:15 PM 79.8°F26.6°C 68.3°F20.2°C 68% Calm Calm -- 30.09 in1019.0 mb - 0.00 in0.0 mm 0.00 in0.0 mm
07:30 PM 79.1°F26.2°C 68.1°F20.1°C 69% Calm Calm -- 30.10 in1019.3 mb - 0.00 in0.0 mm 0.00 in0.0 mm
07:45 PM 78.5°F25.8°C 70.3°F21.3°C 76% Calm Calm -- 30.10 in1019.3 mb - 0.00 in0.0 mm 0.00 in0.0 mm
08:00 PM 77.5°F25.3°C 69.0°F20.6°C 75% Calm Calm -- 30.11 in1019.6 mb - 0.00 in0.0 mm 0.00 in0.0 mm
08:15 PM 76.8°F24.9°C 68.6°F20.3°C 76% Calm Calm -- 30.11 in1019.6 mb - 0.00 in0.0 mm 0.00 in0.0 mm
08:30 PM 76.2°F24.6°C 68.5°F20.3°C 77% Calm Calm -- 30.11 in1019.6 mb - 0.00 in0.0 mm 0.00 in0.0 mm
08:45 PM 75.8°F24.3°C 68.4°F20.2°C 78% Calm Calm -- 30.11 in1019.6 mb - 0.00 in0.0 mm 0.00 in0.0 mm
09:00 PM 75.3°F24.1°C 67.6°F19.8°C 77% Calm Calm -- 30.11 in1019.6 mb - 0.00 in0.0 mm 0.00 in0.0 mm
09:15 PM 74.8°F23.8°C 67.5°F19.7°C 78% Calm Calm -- 30.11 in1019.6 mb - 0.00 in0.0 mm 0.00 in0.0 mm
09:30 PM 74.6°F23.7°C 66.9°F19.4°C 77% Calm Calm -- 30.12 in1020.0 mb - 0.00 in0.0 mm 0.00 in0.0 mm
09:45 PM 74.4°F23.6°C 67.8°F19.9°C 80% Calm Calm -- 30.12 in1020.0 mb - 0.00 in0.0 mm 0.00 in0.0 mm
10:00 PM 74.1°F23.4°C 67.5°F19.7°C 80% Calm Calm -- 30.12 in1020.0 mb - 0.00 in0.0 mm 0.00 in0.0 mm
10:15 PM 73.6°F23.1°C 66.3°F19.1°C 78% Calm Calm -- 30.12 in1020.0 mb - 0.00 in0.0 mm 0.00 in0.0 mm
10:30 PM 73.0°F22.8°C 66.8°F19.3°C 81% Calm Calm -- 30.12 in1020.0 mb - 0.00 in0.0 mm 0.00 in0.0 mm
10:45 PM 72.5°F22.5°C 66.7°F19.3°C 82% Calm Calm -- 30.11 in1019.6 mb - 0.00 in0.0 mm 0.00 in0.0 mm
11:00 PM 71.7°F22.1°C 66.2°F19.0°C 83% Calm Calm -- 30.11 in1019.6 mb - 0.00 in0.0 mm 0.00 in0.0 mm
11:15 PM 71.4°F21.9°C 66.0°F18.9°C 83% Calm Calm -- 30.11 in1019.6 mb - 0.00 in0.0 mm 0.00 in0.0 mm
11:30 PM 71.2°F21.8°C 66.1°F18.9°C 84% Calm Calm -- 30.11 in1019.6 mb - 0.00 in0.0 mm 0.00 in0.0 mm
11:45 PM 70.7°F21.5°C 66.0°F18.9°C 85% Calm Calm -- 30.10 in1019.3 mb - 0.00 in0.0 mm 0.00 in0.0 mm